Time;durP1;ratioP1;P1;durP2;ratioP2;P2;SDS_P1;SDS_P2;PMS_P1;PMS_P2;Temp;Humidity;BMP_temperature;BMP_pressure;BME280_temperature;BME280_humidity;BME280_pressure;Samples;Min_cycle;Max_cycle;Signal;HPM_P1;HPM_P2
2023/09/25 00:05:09;;;;;;;19.33;3.63;;;;;;;23.15;48.16;100674.75;20884120;28;20080;-71
2023/09/25 00:15:34;;;;;;;28.67;4.35;;;;;;;23.14;48.04;100667.59;20870951;28;20053;-71
2023/09/25 00:26:02;;;;;;;20.33;4.10;;;;;;;23.05;48.17;100663.44;20873403;28;20041;-71
2023/09/25 00:36:26;;;;;;;18.10;3.87;;;;;;;22.99;47.97;100659.16;20891019;28;20055;-71
2023/09/25 00:46:49;;;;;;;22.55;4.30;;;;;;;22.87;47.83;100645.28;20867814;28;20136;-71
2023/09/25 00:57:14;;;;;;;25.20;4.72;;;;;;;22.75;47.72;100641.22;20882865;28;20151;-70
2023/09/25 01:07:37;;;;;;;18.90;3.70;;;;;;;22.64;47.82;100628.09;20903367;28;20103;-71
2023/09/25 01:18:03;;;;;;;23.23;3.90;;;;;;;22.63;47.98;100628.19;20878943;28;20404;-70
2023/09/25 01:28:27;;;;;;;16.35;3.22;;;;;;;22.52;48.40;100633.06;20872723;28;20045;-71
2023/09/25 01:38:49;;;;;;;21.00;3.65;;;;;;;22.48;48.30;100631.41;20873176;28;20098;-70
2023/09/25 01:49:13;;;;;;;28.63;4.53;;;;;;;22.41;48.45;100630.75;20882000;28;20068;-71
2023/09/25 01:59:36;;;;;;;23.63;3.92;;;;;;;22.35;48.55;100619.31;20894065;28;20404;-71
2023/09/25 02:10:01;;;;;;;24.30;4.15;;;;;;;22.25;49.26;100619.63;20886414;28;20051;-71
2023/09/25 02:20:23;;;;;;;12.38;3.40;;;;;;;;;;20883772;28;20517;-71
2023/09/25 02:30:47;;;;;;;13.95;3.33;;;;;;;22.13;50.01;100617.38;20870044;28;20076;-71
2023/09/25 02:41:10;;;;;;;19.92;3.53;;;;;;;22.05;50.37;100619.47;20852600;28;20095;-71
2023/09/25 02:51:34;;;;;;;23.85;3.85;;;;;;;22.00;50.92;100621.41;20862267;28;20536;-70
2023/09/25 03:01:57;;;;;;;16.17;3.67;;;;;;;21.93;51.69;100624.31;20869160;28;20535;-70
2023/09/25 03:12:21;;;;;;;18.13;3.70;;;;;;;21.85;52.08;100630.84;20863316;28;20100;-70
2023/09/25 03:22:44;;;;;;;17.42;3.53;;;;;;;21.83;52.27;100637.19;20867159;28;20515;-70
2023/09/25 03:33:09;;;;;;;20.77;3.47;;;;;;;21.75;53.08;100640.13;20856751;28;20409;-70
2023/09/25 03:43:32;;;;;;;15.55;4.18;;;;;;;21.72;53.32;100658.16;20860699;28;20056;-70
2023/09/25 03:53:56;;;;;;;16.42;3.47;;;;;;;21.71;53.42;100659.09;20884149;28;20212;-71
2023/09/25 04:04:18;;;;;;;14.50;3.92;;;;;;;21.75;53.04;100666.13;20868971;28;20045;-71
2023/09/25 04:14:42;;;;;;;17.55;4.13;;;;;;;21.81;52.55;100655.16;20870747;28;20079;-70
2023/09/25 04:25:08;;;;;;;17.85;3.53;;;;;;;21.80;53.67;100665.03;20893997;28;20104;-71
2023/09/25 04:35:32;;;;;;;19.13;3.92;;;;;;;22.17;53.11;100667.44;20883253;28;20401;-70
2023/09/25 04:45:58;;;;;;;17.85;3.70;;;;;;;22.55;53.27;100674.19;20847448;28;20048;-71
2023/09/25 04:56:23;;;;;;;17.90;3.55;;;;;;;23.07;55.99;100676.84;20839275;28;20048;-71
2023/09/25 05:06:45;;;;;;;18.75;3.83;;;;;;;23.53;57.81;100687.66;20869428;28;20496;-71
2023/09/25 05:17:10;;;;;;;22.83;4.22;;;;;;;24.28;56.24;100698.16;20861776;28;20049;-71
2023/09/25 05:27:33;;;;;;;19.00;3.90;;;;;;;25.20;53.83;100701.31;20869845;28;20465;-71
2023/09/25 05:37:57;;;;;;;17.95;3.17;;;;;;;26.19;50.06;100705.56;20872499;28;20047;-71
2023/09/25 05:48:19;;;;;;;19.55;3.78;;;;;;;27.19;47.58;100702.22;20867971;28;20052;-71
2023/09/25 05:58:43;;;;;;;21.52;3.92;;;;;;;28.15;45.22;100703.19;20881638;28;20060;-72
2023/09/25 06:09:08;;;;;;;10.20;2.58;;;;;;;29.22;43.32;100697.56;20867850;28;20148;-72
2023/09/25 06:19:33;;;;;;;13.98;2.70;;;;;;;29.22;43.28;100690.28;20857656;28;20064;-71
2023/09/25 06:29:56;;;;;;;14.57;2.70;;;;;;;28.69;45.29;100703.56;20898683;28;20461;-71
2023/09/25 06:40:21;;;;;;;12.23;2.95;;;;;;;29.50;50.43;100723.94;20873926;28;20049;-71
2023/09/25 06:50:44;;;;;;;15.73;3.33;;;;;;;29.90;57.56;100728.59;20894496;28;20049;-71
2023/09/25 07:01:08;;;;;;;16.33;3.10;;;;;;;30.58;66.38;100744.13;20883562;28;20118;-71
2023/09/25 07:11:30;;;;;;;13.05;3.45;;;;;;;31.01;64.75;100755.66;20828151;28;20056;-71
2023/09/25 07:21:55;;;;;;;13.32;3.30;;;;;;;31.42;64.76;100739.13;20915005;28;20122;-72
2023/09/25 07:32:18;;;;;;;13.80;2.83;;;;;;;31.89;60.69;100733.88;20871320;28;20067;-69
2023/09/25 07:42:42;;;;;;;10.90;2.80;;;;;;;32.25;60.02;100734.84;20948568;28;20037;-70
2023/09/25 07:53:05;;;;;;;14.10;3.23;;;;;;;32.48;61.62;100744.94;20876356;28;20049;-70
2023/09/25 08:03:30;;;;;;;16.42;3.35;;;;;;;32.56;66.71;100758.03;20874268;28;20049;-70
2023/09/25 08:13:53;;;;;;;13.95;3.80;;;;;;;32.69;74.80;100757.00;20847783;28;20049;-69
2023/09/25 08:24:18;;;;;;;15.50;3.72;;;;;;;32.94;79.18;100752.38;20812438;28;20061;-70
2023/09/25 08:34:41;;;;;;;16.75;3.63;;;;;;;32.91;78.32;100758.06;20843826;28;20065;-69
2023/09/25 08:45:07;;;;;;;12.30;3.42;;;;;;;32.97;73.99;100766.69;20819197;28;20065;-70
2023/09/25 08:55:30;;;;;;;18.27;3.70;;;;;;;33.28;66.58;100759.69;20828109;28;20095;-70
2023/09/25 09:05:54;;;;;;;17.00;3.78;;;;;;;33.71;61.86;100759.91;20811759;28;20049;-69
2023/09/25 09:16:19;;;;;;;10.97;3.93;;;;;;;33.64;63.62;100766.84;20881555;28;20049;-70
2023/09/25 09:26:43;;;;;;;18.53;3.80;;;;;;;33.61;62.61;100754.25;20865505;28;20073;-69
2023/09/25 09:37:08;;;;;;;24.25;4.13;;;;;;;33.71;62.41;100748.06;20871544;28;20135;-69
2023/09/25 09:47:35;;;;;;;18.93;4.07;;;;;;;34.14;59.29;100740.78;20894078;28;20049;-69
2023/09/25 09:58:00;;;;;;;16.63;3.85;;;;;;;34.50;58.76;100731.41;20859409;28;20136;-70
2023/09/25 10:08:25;;;;;;;18.47;3.50;;;;;;;34.46;58.96;100721.69;20885118;28;20049;-69
2023/09/25 10:18:51;;;;;;;18.45;3.85;;;;;;;34.48;58.15;100719.69;20868474;28;20072;-69
2023/09/25 10:29:18;;;;;;;10.93;3.72;;;;;;;34.29;58.05;100727.72;20858683;28;20041;-69
2023/09/25 10:39:41;;;;;;;16.48;3.58;;;;;;;34.11;57.64;100712.78;20897649;28;20078;-69
2023/09/25 10:50:07;;;;;;;15.90;3.45;;;;;;;33.66;57.99;100718.31;20881608;28;20111;-68
2023/09/25 11:00:30;;;;;;;17.55;3.55;;;;;;;33.36;59.37;100716.16;20875772;28;20041;-69
2023/09/25 11:22:14;;;;;;;14.77;4.15;;;;;;;33.26;61.10;100720.63;20757950;28;20052;-68
2023/09/25 11:32:37;;;;;;;14.55;4.30;;;;;;;33.03;58.88;100724.28;20795983;28;20680;-68
2023/09/25 11:43:01;;;;;;;17.35;4.07;;;;;;;32.82;56.96;100710.44;20806613;28;20115;-68
2023/09/25 11:53:24;;;;;;;18.52;4.00;;;;;;;32.57;59.12;100705.94;20787191;28;20056;-68
2023/09/25 12:03:48;;;;;;;16.00;3.88;;;;;;;32.42;59.40;100705.28;20779759;28;20132;-69
2023/09/25 12:14:10;;;;;;;14.77;3.65;;;;;;;32.28;62.48;100693.66;20777953;28;20050;-68
2023/09/25 12:24:35;;;;;;;25.45;4.35;;;;;;;32.08;63.50;100695.13;20787453;28;20103;-68
2023/09/25 12:34:57;;;;;;;16.70;4.53;;;;;;;31.95;65.69;100691.56;20792446;28;20034;-68
2023/09/25 12:45:21;;;;;;;15.65;3.72;;;;;;;31.77;65.41;100682.00;20819639;28;20060;-68
2023/09/25 12:55:44;;;;;;;16.58;3.85;;;;;;;31.56;67.76;100679.84;20826391;28;20524;-69
2023/09/25 13:06:09;;;;;;;18.45;4.03;;;;;;;31.75;65.86;100675.78;20804733;28;20484;-68
2023/09/25 13:16:32;;;;;;;15.43;3.95;;;;;;;31.48;71.19;100676.78;20858265;28;20048;-69
2023/09/25 13:26:56;;;;;;;15.13;4.00;;;;;;;31.15;81.90;100679.22;20892664;28;20130;-68
2023/09/25 13:37:19;;;;;;;17.88;4.22;;;;;;;30.78;92.53;100683.63;20922830;28;20109;-67
2023/09/25 13:47:44;;;;;;;17.73;4.55;;;;;;;30.73;90.36;100694.84;20872206;28;20485;-68
2023/09/25 13:58:07;;;;;;;16.10;4.13;;;;;;;30.71;86.62;100699.56;20887096;28;20101;-69
2023/09/25 14:08:31;;;;;;;19.85;4.72;;;;;;;30.46;89.93;100699.44;20897818;28;20576;-68
2023/09/25 14:18:53;;;;;;;19.73;4.28;;;;;;;30.29;89.82;100708.75;20873264;28;20249;-69
2023/09/25 14:29:18;;;;;;;15.73;4.53;;;;;;;30.06;92.31;100707.56;20894042;28;20072;-68
2023/09/25 14:39:43;;;;;;;15.75;4.05;;;;;;;29.83;96.69;100710.91;20890173;28;20045;-69
2023/09/25 14:50:08;;;;;;;13.88;4.25;;;;;;;29.61;99.43;100705.97;20857270;28;20061;-68
2023/09/25 15:00:31;;;;;;;20.02;5.57;;;;;;;29.39;100.00;100713.75;20879998;28;20037;-68
2023/09/25 15:10:56;;;;;;;18.02;5.25;;;;;;;29.08;100.00;100712.03;20852571;28;20045;-68
2023/09/25 15:21:19;;;;;;;17.67;4.55;;;;;;;28.73;100.00;100694.28;20870010;28;20045;-68
2023/09/25 15:31:43;;;;;;;25.45;5.88;;;;;;;28.57;100.00;100702.47;20878569;28;20053;-67
2023/09/25 15:42:06;;;;;;;21.40;5.75;;;;;;;28.46;100.00;100715.81;20900358;28;20049;-67
2023/09/25 15:52:31;;;;;;;22.05;6.10;;;;;;;28.25;100.00;100722.50;20862785;28;20051;-68
2023/09/25 16:02:53;;;;;;;22.27;5.75;;;;;;;28.02;100.00;100731.97;20868377;28;20140;-68
2023/09/25 16:13:18;;;;;;;20.65;5.88;;;;;;;27.86;100.00;100733.78;20874463;28;20096;-69
2023/09/25 16:23:41;;;;;;;22.25;6.55;;;;;;;27.64;100.00;100748.53;20875433;28;20053;-69
2023/09/25 16:34:05;;;;;;;22.17;6.05;;;;;;;27.55;100.00;100749.06;20854058;28;20063;-69
2023/09/25 16:44:28;;;;;;;20.60;6.13;;;;;;;27.35;100.00;100747.41;20872799;28;20051;-70
2023/09/25 16:54:53;;;;;;;25.40;6.07;;;;;;;27.24;100.00;100751.66;20876325;28;20630;-70
2023/09/25 17:05:16;;;;;;;19.17;5.68;;;;;;;27.03;100.00;100739.25;20864472;28;20095;-70
2023/09/25 17:15:40;;;;;;;23.95;6.57;;;;;;;26.77;100.00;100738.75;20878634;28;20049;-70
2023/09/25 17:26:03;;;;;;;18.40;5.95;;;;;;;26.61;100.00;100743.19;20876964;28;20048;-70
2023/09/25 17:36:27;;;;;;;22.83;6.22;;;;;;;26.44;100.00;100746.75;20893498;28;20059;-70
2023/09/25 17:46:51;;;;;;;13.35;5.20;;;;;;;26.23;100.00;100747.78;20893324;28;20095;-70
2023/09/25 17:57:15;;;;;;;31.13;13.80;;;;;;;25.99;100.00;100755.25;20891362;28;20107;-70
2023/09/25 18:07:38;;;;;;;22.65;6.93;;;;;;;25.93;100.00;100766.38;20872336;28;20077;-69
2023/09/25 18:18:02;;;;;;;17.35;6.03;;;;;;;25.76;100.00;100769.91;20878417;28;20071;-69
2023/09/25 18:28:25;;;;;;;20.52;6.00;;;;;;;25.64;100.00;100773.19;20861673;28;20047;-69
2023/09/25 18:38:49;;;;;;;21.00;7.38;;;;;;;25.49;100.00;100783.78;20874374;28;20057;-70
2023/09/25 18:49:12;;;;;;;21.85;6.55;;;;;;;25.36;100.00;100792.44;20855909;28;20138;-70
2023/09/25 18:59:36;;;;;;;21.83;6.13;;;;;;;25.21;100.00;100784.13;20884682;28;20049;-70
2023/09/25 19:10:02;;;;;;;18.08;6.88;;;;;;;25.09;100.00;100782.84;20882207;28;20048;-70
2023/09/25 19:20:26;;;;;;;21.13;6.78;;;;;;;25.04;100.00;100774.09;20875665;28;20152;-69
2023/09/25 19:30:49;;;;;;;23.25;7.47;;;;;;;24.95;100.00;100785.28;20897342;28;20049;-70
2023/09/25 19:41:13;;;;;;;20.35;6.38;;;;;;;24.92;100.00;100788.13;20876253;28;20048;-70
2023/09/25 19:51:38;;;;;;;19.15;6.10;;;;;;;24.93;100.00;100785.38;20881955;28;20045;-70
2023/09/25 20:02:02;;;;;;;17.58;5.78;;;;;;;25.02;100.00;100781.38;20870078;28;20500;-70
2023/09/25 20:12:24;;;;;;;17.25;6.07;;;;;;;24.99;100.00;100787.81;20880682;28;20059;-70
2023/09/25 20:22:49;;;;;;;17.65;5.97;;;;;;;24.93;100.00;100773.69;20872442;28;20056;-70
2023/09/25 20:33:12;;;;;;;17.30;6.20;;;;;;;24.90;100.00;100776.50;20848552;28;20508;-71
2023/09/25 20:43:37;;;;;;;19.15;6.55;;;;;;;24.85;100.00;100770.41;20831114;28;20161;-70
2023/09/25 20:53:59;;;;;;;22.08;7.05;;;;;;;24.67;100.00;100771.19;20890404;28;20621;-70
2023/09/25 21:04:24;;;;;;;19.88;6.43;;;;;;;24.59;100.00;100769.69;20900742;28;20064;-70
2023/09/25 21:14:47;;;;;;;21.08;6.38;;;;;;;24.50;100.00;100761.09;20900361;28;20047;-70
2023/09/25 21:25:11;;;;;;;21.25;6.53;;;;;;;24.51;100.00;100762.84;20885518;28;20057;-70
2023/09/25 21:35:34;;;;;;;18.83;6.13;;;;;;;24.30;100.00;100751.09;20899761;28;20374;-69
2023/09/25 21:45:58;;;;;;;16.50;6.10;;;;;;;24.09;100.00;100750.13;20903675;28;20056;-70
2023/09/25 21:56:20;;;;;;;23.60;7.05;;;;;;;23.98;100.00;100756.91;20909190;28;20063;-70
2023/09/25 22:06:45;;;;;;;17.20;6.70;;;;;;;23.93;100.00;100742.72;20918475;28;20075;-70
2023/09/25 22:17:09;;;;;;;15.30;6.05;;;;;;;23.78;100.00;100742.38;20895323;28;20135;-70
2023/09/25 22:27:35;;;;;;;24.38;6.10;;;;;;;23.57;100.00;100736.94;20893723;28;20052;-70
2023/09/25 22:38:05;;;;;;;18.30;5.97;;;;;;;23.46;100.00;100740.00;20895924;28;20045;-70
2023/09/25 22:48:30;;;;;;;20.05;6.07;;;;;;;23.39;100.00;100727.72;20878645;28;20049;-70
2023/09/25 22:58:52;;;;;;;12.52;5.25;;;;;;;23.29;100.00;100729.00;20883682;28;20056;-70
2023/09/25 23:09:17;;;;;;;16.02;5.47;;;;;;;23.20;100.00;100722.13;20879977;28;20519;-70
2023/09/25 23:19:39;;;;;;;16.88;5.47;;;;;;;23.07;100.00;100718.13;20854124;28;20164;-69
2023/09/25 23:30:06;;;;;;;15.05;5.03;;;;;;;22.99;100.00;100714.81;20789801;28;20056;-70
2023/09/25 23:40:30;;;;;;;14.15;4.57;;;;;;;22.84;100.00;100713.56;20814665;28;20060;-70
2023/09/25 23:50:54;;;;;;;13.32;4.90;;;;;;;22.72;100.00;100716.66;20812441;28;20082;-70
